Time;durP1;ratioP1;P1;durP2;ratioP2;P2;SDS_P1;SDS_P2;PMS_P1;PMS_P2;Temp;Humidity;BMP_temperature;BMP_pressure;BME280_temperature;BME280_humidity;BME280_pressure;Samples;Min_cycle;Max_cycle;Signal;HPM_P1;HPM_P2
2022/03/24 00:01:43;;;;;;;37.22;28.13;;;7.60;93.30;;;;;;4925763;28;20064;-56
2022/03/24 00:04:09;;;;;;;37.70;27.25;;;7.50;93.10;;;;;;4941889;28;20055;-54
2022/03/24 00:06:34;;;;;;;39.30;29.85;;;7.50;93.00;;;;;;4926401;29;20047;-56
2022/03/24 00:09:01;;;;;;;51.80;32.47;;;7.40;93.00;;;;;;4930475;29;20075;-56
2022/03/24 00:11:27;;;;;;;41.10;29.73;;;7.40;93.40;;;;;;4924972;29;20457;-56
2022/03/24 00:13:52;;;;;;;36.50;27.60;;;7.30;94.10;;;;;;4924804;28;20138;-56
2022/03/24 00:16:19;;;;;;;38.35;27.52;;;7.30;94.30;;;;;;4923432;28;20157;-57
2022/03/24 00:18:48;;;;;;;46.10;31.95;;;7.30;94.50;;;;;;4927181;29;20269;-56
2022/03/24 00:21:16;;;;;;;57.05;38.22;;;7.20;94.80;;;;;;4940585;28;20397;-56
2022/03/24 00:23:42;;;;;;;62.05;40.85;;;7.20;95.40;;;;;;4929914;28;20520;-56
2022/03/24 00:26:09;;;;;;;62.47;42.05;;;7.20;95.80;;;;;;4926019;28;20047;-57
2022/03/24 00:28:34;;;;;;;65.03;42.35;;;7.10;96.10;;;;;;4925674;28;20106;-55
2022/03/24 00:31:01;;;;;;;59.20;41.10;;;7.10;96.30;;;;;;4916973;29;20051;-55
2022/03/24 00:33:28;;;;;;;65.63;40.15;;;7.10;96.60;;;;;;4925920;29;20043;-54
2022/03/24 00:35:55;;;;;;;60.03;40.72;;;7.00;97.40;;;;;;4923294;28;20059;-56
2022/03/24 00:38:21;;;;;;;65.10;43.92;;;7.00;98.00;;;;;;4925084;29;20050;-56
2022/03/24 00:40:47;;;;;;;65.55;44.00;;;6.90;98.40;;;;;;4923244;29;20190;-56
2022/03/24 00:43:14;;;;;;;65.13;44.78;;;6.90;98.90;;;;;;4927131;28;20054;-56
2022/03/24 00:45:40;;;;;;;66.97;44.13;;;6.90;99.00;;;;;;4922226;29;20090;-54
2022/03/24 00:48:07;;;;;;;67.40;46.13;;;6.80;99.20;;;;;;4925214;28;20039;-56
2022/03/24 00:50:34;;;;;;;76.47;49.97;;;6.80;99.30;;;;;;4923583;29;20052;-56
2022/03/24 00:53:01;;;;;;;70.93;45.92;;;6.80;99.90;;;;;;4928741;28;20058;-56
2022/03/24 00:55:26;;;;;;;61.95;42.78;;;6.80;99.90;;;;;;4925060;29;20056;-55
2022/03/24 00:57:53;;;;;;;70.88;45.45;;;6.70;99.90;;;;;;4927160;29;20063;-53
2022/03/24 01:00:20;;;;;;;70.07;46.95;;;6.70;99.90;;;;;;4925135;28;20051;-56
2022/03/24 01:02:49;;;;;;;72.00;45.10;;;6.70;99.90;;;;;;4928765;29;20358;-55
2022/03/24 01:05:16;;;;;;;58.83;41.17;;;6.60;99.90;;;;;;4926054;28;20058;-56
2022/03/24 01:07:46;;;;;;;60.85;40.45;;;6.60;99.90;;;;;;4924913;28;20047;-55
2022/03/24 01:10:16;;;;;;;57.00;39.70;;;6.60;99.90;;;;;;4924909;29;22531;-55
2022/03/24 01:12:43;;;;;;;63.13;43.45;;;6.50;99.90;;;;;;4925395;28;20469;-55
2022/03/24 01:15:16;;;;;;;66.47;44.22;;;6.50;99.90;;;;;;4924647;28;20051;-56
2022/03/24 01:17:42;;;;;;;66.03;43.55;;;6.50;99.90;;;;;;4922951;28;20104;-55
2022/03/24 01:20:09;;;;;;;66.07;44.22;;;6.50;99.90;;;;;;4922047;29;20055;-56
2022/03/24 01:22:35;;;;;;;71.45;45.17;;;6.50;99.90;;;;;;4923617;29;20043;-55
2022/03/24 01:25:02;;;;;;;66.15;44.08;;;6.40;99.90;;;;;;4921862;28;20519;-56
2022/03/24 01:27:28;;;;;;;63.50;42.35;;;6.40;99.90;;;;;;4924477;28;20059;-56
2022/03/24 01:29:59;;;;;;;60.28;41.83;;;6.30;99.90;;;;;;4923965;28;20042;-56
2022/03/24 01:32:29;;;;;;;55.35;38.20;;;6.30;99.90;;;;;;4924700;28;20042;-56
2022/03/24 01:34:55;;;;;;;63.67;41.47;;;6.30;99.90;;;;;;4922112;29;20047;-55
2022/03/24 01:37:26;;;;;;;63.35;42.97;;;6.30;99.90;;;;;;4927757;29;20058;-56
2022/03/24 01:39:51;;;;;;;66.60;44.63;;;6.30;99.90;;;;;;4924292;28;20052;-55
2022/03/24 01:42:19;;;;;;;72.30;47.17;;;6.20;99.90;;;;;;4925297;29;20509;-56
2022/03/24 01:44:48;;;;;;;70.40;46.17;;;6.20;99.90;;;;;;4922754;29;20047;-55
2022/03/24 01:47:16;;;;;;;64.10;42.28;;;6.20;99.90;;;;;;4922804;28;20055;-56
2022/03/24 01:49:49;;;;;;;46.58;33.13;;;6.20;99.90;;;;;;4922245;28;20055;-56
2022/03/24 01:52:18;;;;;;;32.58;24.88;;;6.10;99.90;;;;;;4922474;29;20059;-55
2022/03/24 01:54:51;;;;;;;34.38;24.27;;;6.10;99.90;;;;;;4921309;28;20047;-56
2022/03/24 01:57:17;;;;;;;43.85;29.23;;;6.00;99.90;;;;;;4925271;28;20220;-55
2022/03/24 01:59:43;;;;;;;53.75;36.22;;;6.00;99.90;;;;;;4923840;29;20051;-56
2022/03/24 02:02:11;;;;;;;61.00;40.05;;;6.00;99.90;;;;;;4922144;29;20066;-56
2022/03/24 02:04:37;;;;;;;61.67;42.30;;;5.90;99.90;;;;;;4921190;29;20043;-54
2022/03/24 02:07:05;;;;;;;64.05;42.45;;;5.80;99.90;;;;;;4922030;28;20047;-55
2022/03/24 02:09:33;;;;;;;65.38;42.35;;;5.90;99.90;;;;;;4926504;28;20051;-55
2022/03/24 02:12:00;;;;;;;69.25;44.53;;;5.80;99.90;;;;;;4925131;28;20090;-56
2022/03/24 02:14:29;;;;;;;72.25;45.30;;;5.90;99.90;;;;;;4922532;29;20039;-56
2022/03/24 02:16:55;;;;;;;68.95;44.47;;;5.80;99.90;;;;;;4923332;29;20058;-56
2022/03/24 02:19:24;;;;;;;66.88;44.45;;;5.80;99.90;;;;;;4924754;29;20130;-56
2022/03/24 02:21:55;;;;;;;73.55;47.25;;;5.80;99.90;;;;;;4924449;28;20847;-55
2022/03/24 02:24:24;;;;;;;75.63;46.47;;;5.80;99.90;;;;;;4922281;28;20412;-55
2022/03/24 02:26:51;;;;;;;84.40;50.70;;;5.80;99.90;;;;;;4922449;29;20146;-56
2022/03/24 02:29:18;;;;;;;77.55;47.70;;;5.70;99.90;;;;;;4921434;28;20051;-56
2022/03/24 02:31:47;;;;;;;79.68;49.25;;;5.70;99.90;;;;;;4923992;28;20039;-56
2022/03/24 02:37:00;;;;;;;81.82;52.03;;;5.70;99.90;;;;;;4923930;28;20250;-56
2022/03/24 02:39:28;;;;;;;79.40;51.40;;;5.60;99.90;;;;;;4923684;28;21319;-55
2022/03/24 02:41:55;;;;;;;70.60;44.85;;;5.70;99.90;;;;;;4922435;28;20081;-55
2022/03/24 02:44:25;;;;;;;63.25;39.75;;;5.70;99.90;;;;;;4922800;29;20089;-56
2022/03/24 02:46:55;;;;;;;62.35;39.10;;;5.60;99.90;;;;;;4926410;28;20090;-55
2022/03/24 02:49:26;;;;;;;66.47;44.42;;;5.60;99.90;;;;;;4923312;29;20224;-52
2022/03/24 02:51:53;;;;;;;83.38;49.20;;;5.60;99.90;;;;;;4921889;28;20529;-56
2022/03/24 02:54:20;;;;;;;79.45;50.15;;;5.60;99.90;;;;;;4925267;28;20372;-55
2022/03/24 02:56:47;;;;;;;78.65;49.63;;;5.40;99.90;;;;;;4923460;29;20695;-55
2022/03/24 02:59:13;;;;;;;83.60;50.72;;;5.50;99.90;;;;;;4930017;28;20063;-54
2022/03/24 03:01:45;;;;;;;79.47;49.72;;;5.50;99.90;;;;;;4926914;28;20296;-55
2022/03/24 03:04:15;;;;;;;63.22;38.83;;;5.50;99.90;;;;;;4930247;28;20462;-55
2022/03/24 03:06:40;;;;;;;46.92;31.90;;;5.40;99.90;;;;;;4924203;29;20114;-55
2022/03/24 03:09:06;;;;;;;43.53;30.13;;;5.40;99.90;;;;;;4926957;29;20054;-55
2022/03/24 03:11:33;;;;;;;66.85;42.25;;;5.40;99.90;;;;;;4928426;28;20125;-55
2022/03/24 03:14:00;;;;;;;58.05;37.50;;;5.30;99.90;;;;;;4928112;29;20051;-55
2022/03/24 03:16:27;;;;;;;59.35;38.88;;;5.30;99.90;;;;;;4926029;28;20043;-55
2022/03/24 03:18:53;;;;;;;61.88;40.90;;;5.20;99.90;;;;;;4928850;28;20186;-55
2022/03/24 03:21:20;;;;;;;64.95;41.13;;;5.20;99.90;;;;;;4928311;28;20051;-56
2022/03/24 03:23:46;;;;;;;77.32;48.40;;;5.20;99.90;;;;;;4925277;29;20095;-56
2022/03/24 03:26:15;;;;;;;73.85;45.97;;;5.20;99.90;;;;;;4927486;29;20568;-56
2022/03/24 03:28:41;;;;;;;62.13;40.78;;;5.20;99.90;;;;;;4928009;28;20158;-55
2022/03/24 03:31:06;;;;;;;54.92;35.42;;;5.20;99.90;;;;;;4926500;28;20052;-55
2022/03/24 03:33:33;;;;;;;43.92;31.35;;;5.20;99.90;;;;;;4927520;29;20123;-55
2022/03/24 03:35:59;;;;;;;30.65;21.65;;;5.10;99.90;;;;;;4926789;29;20058;-54
2022/03/24 03:38:26;;;;;;;52.03;32.67;;;5.10;99.90;;;;;;4923834;28;20051;-55
2022/03/24 03:40:53;;;;;;;48.05;30.58;;;5.00;99.90;;;;;;4925859;28;20098;-55
2022/03/24 03:43:20;;;;;;;59.38;38.22;;;5.00;99.90;;;;;;4930905;28;20093;-56
2022/03/24 03:45:46;;;;;;;67.50;42.25;;;5.00;99.90;;;;;;4924859;28;20051;-56
2022/03/24 03:48:12;;;;;;;67.75;43.03;;;5.00;99.90;;;;;;4926850;29;20051;-55
2022/03/24 03:50:41;;;;;;;70.85;44.40;;;5.00;99.90;;;;;;4927593;29;20415;-55
2022/03/24 03:53:08;;;;;;;64.95;42.42;;;4.90;99.90;;;;;;4926813;29;20047;-56
2022/03/24 03:55:35;;;;;;;63.47;40.95;;;4.90;99.90;;;;;;4924529;28;20054;-54
2022/03/24 03:58:02;;;;;;;47.92;30.55;;;4.90;99.90;;;;;;4926092;29;20045;-55
2022/03/24 04:03:12;;;;;;;43.10;27.98;;;4.90;99.90;;;;;;4924845;28;20138;-55
2022/03/24 04:05:38;;;;;;;49.70;32.22;;;4.90;99.90;;;;;;4925197;29;20658;-56
2022/03/24 04:08:04;;;;;;;52.65;34.38;;;4.80;99.90;;;;;;4925359;28;20047;-53
2022/03/24 04:10:32;;;;;;;67.97;42.58;;;4.80;99.90;;;;;;4930688;28;20055;-56
2022/03/24 04:12:58;;;;;;;75.20;45.92;;;4.80;99.90;;;;;;4925517;29;20180;-55
2022/03/24 04:15:24;;;;;;;72.70;44.25;;;4.90;99.90;;;;;;4926429;29;20056;-56
2022/03/24 04:17:53;;;;;;;71.25;42.35;;;4.80;99.90;;;;;;4933063;29;20414;-56
2022/03/24 04:20:22;;;;;;;68.95;42.83;;;4.80;99.90;;;;;;4932713;29;20051;-54
2022/03/24 04:22:50;;;;;;;62.15;40.08;;;4.80;99.90;;;;;;4925824;29;20078;-55
2022/03/24 04:25:17;;;;;;;70.90;44.28;;;4.70;99.90;;;;;;4930817;29;20059;-56
2022/03/24 04:27:43;;;;;;;74.93;46.08;;;4.70;99.90;;;;;;4931047;28;20042;-55
2022/03/24 04:30:12;;;;;;;81.82;49.30;;;4.70;99.90;;;;;;4928429;28;20089;-55
2022/03/24 04:32:42;;;;;;;70.15;43.53;;;4.70;99.90;;;;;;4928965;29;20047;-55
2022/03/24 04:35:09;;;;;;;77.53;47.03;;;4.70;99.90;;;;;;4927159;29;20043;-55
2022/03/24 04:37:35;;;;;;;83.20;48.58;;;4.70;99.90;;;;;;4928198;29;20055;-55
2022/03/24 04:40:03;;;;;;;85.43;50.58;;;4.70;99.90;;;;;;4925899;28;20051;-56
2022/03/24 04:42:29;;;;;;;83.18;49.63;;;4.70;99.90;;;;;;4927774;28;20058;-54
2022/03/24 04:44:56;;;;;;;81.65;48.97;;;4.70;99.90;;;;;;4938786;28;20414;-56
2022/03/24 04:47:22;;;;;;;83.28;50.53;;;4.70;99.90;;;;;;4928667;29;20035;-56
2022/03/24 04:49:48;;;;;;;60.97;38.10;;;4.60;99.90;;;;;;4927726;28;20122;-55
2022/03/24 04:52:14;;;;;;;45.38;29.30;;;4.60;99.90;;;;;;4928723;28;20043;-56
2022/03/24 04:54:40;;;;;;;45.47;30.38;;;4.60;99.90;;;;;;4923953;29;20182;-55
2022/03/24 04:57:06;;;;;;;51.20;31.88;;;4.50;99.90;;;;;;4926549;28;20047;-54
2022/03/24 04:59:33;;;;;;;53.75;33.63;;;4.50;99.90;;;;;;4926428;29;20497;-55
2022/03/24 05:01:58;;;;;;;45.67;31.40;;;4.50;99.90;;;;;;4927147;29;20082;-55
2022/03/24 05:04:24;;;;;;;47.45;31.15;;;4.40;99.90;;;;;;4933736;28;20135;-54
2022/03/24 05:06:50;;;;;;;43.00;29.55;;;4.40;99.90;;;;;;4925252;29;20565;-54
2022/03/24 05:09:16;;;;;;;40.60;27.33;;;4.40;99.90;;;;;;4925351;28;20047;-55
2022/03/24 05:11:42;;;;;;;38.05;25.98;;;4.40;99.90;;;;;;4923524;28;20058;-56
2022/03/24 05:14:08;;;;;;;35.58;25.38;;;4.30;99.90;;;;;;4925187;29;20139;-54
2022/03/24 05:16:34;;;;;;;36.45;25.17;;;4.30;99.90;;;;;;4921167;29;20051;-55
2022/03/24 05:19:01;;;;;;;40.95;28.05;;;4.30;99.90;;;;;;4925146;28;20066;-55
2022/03/24 05:21:27;;;;;;;38.63;27.38;;;4.30;99.90;;;;;;4926506;28;20049;-54
2022/03/24 05:23:53;;;;;;;42.78;28.67;;;4.30;99.90;;;;;;4920658;28;21688;-55
2022/03/24 05:26:23;;;;;;;44.65;29.70;;;4.30;99.90;;;;;;4921121;28;20043;-55
2022/03/24 05:28:49;;;;;;;43.92;28.38;;;4.30;99.90;;;;;;4924999;28;21876;-55
2022/03/24 05:31:16;;;;;;;40.80;27.52;;;4.20;99.90;;;;;;4922980;29;20100;-56
2022/03/24 05:33:43;;;;;;;39.00;25.98;;;4.20;99.90;;;;;;4923489;29;20050;-53
2022/03/24 05:36:09;;;;;;;40.35;26.65;;;4.20;99.90;;;;;;4924500;28;20114;-52
2022/03/24 05:38:35;;;;;;;41.15;27.58;;;4.20;99.90;;;;;;4921826;29;20058;-56
2022/03/24 05:41:01;;;;;;;42.53;27.98;;;4.10;99.90;;;;;;4906546;29;20066;-55
2022/03/24 05:43:27;;;;;;;38.95;26.65;;;4.20;99.90;;;;;;4923150;28;20058;-55
2022/03/24 05:45:53;;;;;;;32.60;22.35;;;4.20;99.90;;;;;;4921815;28;20047;-55
2022/03/24 05:48:19;;;;;;;30.55;21.45;;;4.10;99.90;;;;;;4923388;28;20075;-55
2022/03/24 05:50:45;;;;;;;30.15;21.70;;;4.10;99.90;;;;;;4924594;28;20051;-55
2022/03/24 05:53:11;;;;;;;28.10;19.92;;;4.10;99.90;;;;;;4924372;28;20051;-52
2022/03/24 05:55:38;;;;;;;24.15;18.00;;;4.10;99.90;;;;;;4921479;29;20066;-56
2022/03/24 05:58:04;;;;;;;25.77;18.27;;;4.10;99.90;;;;;;4926382;28;22432;-55
2022/03/24 06:00:31;;;;;;;29.17;20.23;;;4.00;99.90;;;;;;4926566;28;20058;-56
2022/03/24 06:02:57;;;;;;;45.20;27.98;;;4.10;99.90;;;;;;4925641;29;20422;-55
2022/03/24 06:05:25;;;;;;;29.15;20.50;;;4.10;99.90;;;;;;4921737;28;20518;-54
2022/03/24 06:07:51;;;;;;;17.08;14.77;;;4.00;99.90;;;;;;4924068;29;20047;-53
2022/03/24 06:10:18;;;;;;;15.88;13.85;;;4.00;99.90;;;;;;4924360;29;20051;-54
2022/03/24 06:12:46;;;;;;;18.08;14.35;;;4.00;99.90;;;;;;4926571;28;20078;-55
2022/03/24 06:15:12;;;;;;;18.35;15.45;;;4.00;99.90;;;;;;4923725;28;20585;-51
2022/03/24 06:17:38;;;;;;;20.80;16.10;;;4.00;99.90;;;;;;4926246;29;20047;-55
2022/03/24 06:20:06;;;;;;;19.77;16.73;;;4.00;99.90;;;;;;4922338;29;20501;-55
2022/03/24 06:22:50;;;;;;;23.45;17.17;;;4.00;99.90;;;;;;4928381;29;20055;-55
2022/03/24 06:25:17;;;;;;;25.70;18.42;;;4.00;99.90;;;;;;4924274;29;20118;-56
2022/03/24 06:27:43;;;;;;;25.42;18.08;;;4.00;99.90;;;;;;4925751;28;20082;-55
2022/03/24 06:30:09;;;;;;;23.52;17.83;;;4.00;99.90;;;;;;4925212;28;20483;-55
2022/03/24 06:32:35;;;;;;;26.25;18.60;;;4.10;99.90;;;;;;4928852;28;20748;-56
2022/03/24 06:35:03;;;;;;;25.17;19.23;;;4.10;99.90;;;;;;4926697;29;20052;-55
2022/03/24 06:37:29;;;;;;;38.08;25.05;;;4.20;99.90;;;;;;4928241;28;20111;-55
2022/03/24 06:39:56;;;;;;;34.47;23.50;;;4.20;99.90;;;;;;4929023;29;20489;-55
2022/03/24 06:42:23;;;;;;;44.22;28.80;;;4.20;99.90;;;;;;4928475;28;20390;-55
2022/03/24 06:44:49;;;;;;;37.42;25.83;;;4.30;99.90;;;;;;4927125;29;20050;-55
2022/03/24 06:47:15;;;;;;;36.63;23.58;;;4.30;99.90;;;;;;4929877;29;20402;-55
2022/03/24 06:49:41;;;;;;;40.88;27.90;;;4.40;99.90;;;;;;4928546;29;20052;-56
2022/03/24 06:52:07;;;;;;;48.75;30.85;;;4.40;99.90;;;;;;4928502;29;20051;-55
2022/03/24 06:54:33;;;;;;;46.20;30.23;;;4.40;99.90;;;;;;4931739;28;20049;-56
2022/03/24 06:56:59;;;;;;;46.58;29.75;;;4.50;99.90;;;;;;4937113;29;20047;-54
2022/03/24 06:59:24;;;;;;;49.95;29.33;;;4.50;99.90;;;;;;4933947;28;20048;-54
2022/03/24 07:01:51;;;;;;;59.22;36.03;;;4.60;99.90;;;;;;4928558;29;20043;-53
2022/03/24 07:04:17;;;;;;;53.50;34.70;;;4.60;99.90;;;;;;4930242;28;20561;-55
2022/03/24 07:06:43;;;;;;;51.00;32.97;;;4.70;99.90;;;;;;4927784;29;20075;-54
2022/03/24 07:09:09;;;;;;;61.92;38.85;;;4.80;99.90;;;;;;4930281;29;20043;-55
2022/03/24 07:11:34;;;;;;;79.28;44.70;;;4.80;99.90;;;;;;4930059;28;20058;-55
2022/03/24 07:14:01;;;;;;;83.50;45.53;;;4.80;99.90;;;;;;4917897;29;20133;-55
2022/03/24 07:16:27;;;;;;;72.70;44.33;;;4.90;99.90;;;;;;4928283;29;20059;-62
2022/03/24 07:18:53;;;;;;;85.47;49.85;;;4.90;99.90;;;;;;4896518;29;20055;-62
2022/03/24 07:21:19;;;;;;;86.28;49.20;;;5.00;99.90;;;;;;4934469;29;20062;-62
2022/03/24 07:23:45;;;;;;;90.95;49.88;;;5.10;99.90;;;;;;4928606;29;20052;-62
2022/03/24 07:26:11;;;;;;;98.22;54.22;;;5.20;99.90;;;;;;4914455;29;20087;-62
2022/03/24 07:28:37;;;;;;;110.28;58.65;;;5.20;99.90;;;;;;4925737;28;20407;-62
2022/03/24 07:31:11;;;;;;;109.43;60.83;;;5.30;99.90;;;;;;4927735;29;20629;-62
2022/03/24 07:33:36;;;;;;;104.10;57.92;;;5.30;99.90;;;;;;4926491;28;20446;-62
2022/03/24 07:36:02;;;;;;;112.85;61.55;;;5.40;99.90;;;;;;4935135;28;20059;-62
2022/03/24 07:38:28;;;;;;;108.75;59.65;;;5.50;99.90;;;;;;4929906;28;20047;-62
2022/03/24 07:40:54;;;;;;;111.05;62.58;;;5.60;99.90;;;;;;4930225;29;20122;-62
2022/03/24 07:43:20;;;;;;;115.03;63.30;;;5.70;99.90;;;;;;4927234;28;20058;-62
2022/03/24 07:45:46;;;;;;;110.03;62.30;;;5.80;99.90;;;;;;4919077;29;20083;-62
2022/03/24 07:48:27;;;;;;;113.93;64.25;;;5.90;99.90;;;;;;4931373;28;20158;-63
2022/03/24 07:50:55;;;;;;;109.35;63.42;;;6.00;99.90;;;;;;4935035;29;20106;-62
2022/03/24 07:53:27;;;;;;;118.85;66.15;;;6.20;99.90;;;;;;4923726;28;20055;-62
2022/03/24 07:55:55;;;;;;;107.47;62.70;;;6.30;99.90;;;;;;4927268;28;20163;-62
2022/03/24 07:58:21;;;;;;;127.63;69.95;;;6.40;99.90;;;;;;4934711;28;23602;-62
2022/03/24 08:00:47;;;;;;;125.95;70.25;;;6.50;99.90;;;;;;4925206;28;20051;-62
2022/03/24 08:03:19;;;;;;;126.82;70.40;;;6.70;99.90;;;;;;4928512;28;20054;-62
2022/03/24 08:05:47;;;;;;;119.27;67.70;;;6.90;99.90;;;;;;4944120;28;20541;-62
2022/03/24 08:08:14;;;;;;;119.72;68.70;;;7.10;99.90;;;;;;4931398;29;20055;-62
2022/03/24 08:10:42;;;;;;;112.82;67.72;;;7.20;99.90;;;;;;4925634;29;20254;-62
2022/03/24 08:13:13;;;;;;;115.78;69.38;;;7.40;99.90;;;;;;4929329;29;20046;-62
2022/03/24 08:15:40;;;;;;;113.18;67.07;;;7.60;99.90;;;;;;4927369;29;20054;-62
2022/03/24 08:18:08;;;;;;;113.32;67.75;;;7.80;99.90;;;;;;4926059;28;20062;-62
2022/03/24 08:20:38;;;;;;;115.43;69.22;;;8.00;99.90;;;;;;4921833;28;20051;-62
2022/03/24 08:23:05;;;;;;;116.35;69.85;;;8.10;99.90;;;;;;4916206;29;20055;-63
2022/03/24 08:25:32;;;;;;;106.00;64.40;;;8.30;99.90;;;;;;4932454;29;20083;-62
2022/03/24 08:27:58;;;;;;;111.28;64.85;;;8.40;99.90;;;;;;4925804;29;20071;-62
2022/03/24 08:30:25;;;;;;;106.75;65.53;;;8.60;99.90;;;;;;4926295;29;20055;-62
2022/03/24 08:32:50;;;;;;;101.85;63.05;;;8.80;99.90;;;;;;4929390;28;20158;-63
2022/03/24 08:35:16;;;;;;;94.97;59.83;;;8.90;99.90;;;;;;4929236;28;20791;-63
2022/03/24 08:37:43;;;;;;;101.75;61.38;;;9.10;99.90;;;;;;4934037;28;20043;-63
2022/03/24 08:40:10;;;;;;;100.93;60.75;;;9.20;99.90;;;;;;4910250;29;20055;-63
2022/03/24 08:42:37;;;;;;;99.20;60.28;;;9.30;99.90;;;;;;4911741;29;20047;-63
2022/03/24 08:45:08;;;;;;;93.93;58.20;;;9.50;99.90;;;;;;4925480;29;20169;-62
2022/03/24 08:47:35;;;;;;;103.03;62.88;;;9.70;99.90;;;;;;4927085;29;20107;-63
2022/03/24 08:50:01;;;;;;;99.90;59.83;;;9.90;99.90;;;;;;4923617;29;20052;-62
2022/03/24 08:52:27;;;;;;;99.07;60.40;;;10.00;99.90;;;;;;4932634;29;20174;-63
2022/03/24 08:54:54;;;;;;;95.10;58.85;;;10.20;99.90;;;;;;4930274;29;20099;-63
2022/03/24 08:57:26;;;;;;;97.95;59.78;;;10.30;99.90;;;;;;4929620;28;20055;-62
2022/03/24 08:59:56;;;;;;;85.70;55.33;;;10.50;99.90;;;;;;4927963;28;20438;-63
2022/03/24 09:02:22;;;;;;;86.10;55.03;;;10.60;99.90;;;;;;4927361;29;20066;-63
2022/03/24 09:04:48;;;;;;;92.13;57.40;;;10.80;99.90;;;;;;4926289;29;20043;-63
2022/03/24 09:07:15;;;;;;;86.05;54.95;;;11.00;99.90;;;;;;4916133;29;20058;-63
2022/03/24 09:09:42;;;;;;;87.05;56.70;;;11.10;99.90;;;;;;4940649;28;20123;-63
2022/03/24 09:12:09;;;;;;;89.28;55.70;;;11.30;99.90;;;;;;4923841;29;20138;-63
2022/03/24 09:14:40;;;;;;;90.60;55.28;;;11.40;99.90;;;;;;4894385;29;20069;-63
2022/03/24 09:17:07;;;;;;;86.22;52.90;;;11.70;99.90;;;;;;4924722;29;20055;-63
2022/03/24 09:19:33;;;;;;;85.00;52.63;;;11.80;99.90;;;;;;4926670;28;20222;-62
2022/03/24 09:22:00;;;;;;;83.13;52.00;;;12.00;99.90;;;;;;4922984;28;20138;-63
2022/03/24 09:24:27;;;;;;;83.32;50.75;;;12.20;99.90;;;;;;4932724;29;20089;-63
2022/03/24 09:26:53;;;;;;;85.60;52.08;;;12.30;99.90;;;;;;4929773;29;20090;-63
2022/03/24 09:29:19;;;;;;;79.05;51.38;;;12.50;99.90;;;;;;4930805;28;20087;-63
2022/03/24 09:31:47;;;;;;;82.05;51.70;;;12.70;99.90;;;;;;4929514;28;20502;-63
2022/03/24 09:34:12;;;;;;;87.43;51.38;;;12.80;99.90;;;;;;4922301;28;20051;-63
2022/03/24 09:36:39;;;;;;;78.88;50.78;;;13.00;99.90;;;;;;4927319;29;20078;-63
2022/03/24 09:39:07;;;;;;;83.55;51.15;;;13.10;99.90;;;;;;4926479;28;20505;-63
2022/03/24 09:41:34;;;;;;;81.00;49.03;;;13.30;99.90;;;;;;4928547;29;20066;-63
2022/03/24 09:44:00;;;;;;;77.45;50.28;;;13.30;99.80;;;;;;4927415;28;20129;-63
2022/03/24 09:46:27;;;;;;;82.95;51.60;;;13.50;99.80;;;;;;4903931;29;20055;-63
2022/03/24 09:48:54;;;;;;;80.90;50.35;;;13.70;99.50;;;;;;4929493;29;20051;-64
2022/03/24 09:51:22;;;;;;;76.45;49.42;;;13.80;99.20;;;;;;4921986;29;20051;-63
2022/03/24 09:53:48;;;;;;;74.78;49.95;;;14.00;98.70;;;;;;4942254;28;20050;-63
2022/03/24 09:56:14;;;;;;;78.95;49.67;;;14.10;98.60;;;;;;4923474;29;20052;-63
2022/03/24 09:58:44;;;;;;;75.57;48.28;;;14.30;98.30;;;;;;4930480;29;20113;-63
2022/03/24 10:01:13;;;;;;;83.47;49.55;;;14.40;97.20;;;;;;4926432;28;20055;-63
2022/03/24 10:03:39;;;;;;;73.85;48.78;;;14.50;96.70;;;;;;4912102;29;20050;-63
2022/03/24 10:06:07;;;;;;;89.22;51.67;;;14.70;96.20;;;;;;4910774;29;20058;-63
2022/03/24 10:08:35;;;;;;;79.15;51.70;;;14.80;96.30;;;;;;4924069;28;20051;-63
2022/03/24 10:11:07;;;;;;;76.40;49.95;;;14.90;96.00;;;;;;4920753;28;20079;-63
2022/03/24 10:13:45;;;;;;;79.93;49.08;;;15.10;95.90;;;;;;4920476;28;20043;-63
2022/03/24 10:16:14;;;;;;;73.22;45.70;;;15.20;94.40;;;;;;4926224;28;20488;-64
2022/03/24 10:19:02;;;;;;;66.50;45.75;;;15.30;94.10;;;;;;4930341;28;20091;-63
2022/03/24 10:21:29;;;;;;;66.72;44.47;;;15.50;93.60;;;;;;4930512;29;20141;-64
2022/03/24 10:24:00;;;;;;;71.00;44.67;;;15.60;92.20;;;;;;4930699;28;20060;-63
2022/03/24 10:26:48;;;;;;;69.65;46.05;;;15.70;91.30;;;;;;4939852;28;20054;-64
2022/03/24 10:29:24;;;;;;;71.13;44.03;;;15.80;90.30;;;;;;4929208;28;20102;-64
2022/03/24 10:31:59;;;;;;;73.32;45.42;;;15.90;90.10;;;;;;4919672;28;20058;-64
2022/03/24 10:34:33;;;;;;;67.40;45.85;;;16.00;89.10;;;;;;4923641;28;20127;-64
2022/03/24 10:37:08;;;;;;;73.22;45.95;;;16.20;87.30;;;;;;4910016;29;20655;-64
2022/03/24 10:39:40;;;;;;;67.95;44.15;;;16.30;86.10;;;;;;4926193;28;20185;-64
2022/03/24 10:42:14;;;;;;;66.47;41.22;;;16.40;85.70;;;;;;4928312;29;20073;-64
2022/03/24 10:45:20;;;;;;;61.72;40.28;;;16.60;84.30;;;;;;4909978;29;20074;-64
2022/03/24 10:48:00;;;;;;;57.03;38.42;;;16.70;83.10;;;;;;4911820;29;20062;-64
2022/03/24 10:50:40;;;;;;;54.20;36.53;;;16.90;79.90;;;;;;4932420;29;20486;-64
2022/03/24 10:53:08;;;;;;;58.95;38.10;;;17.00;77.10;;;;;;4926359;28;20560;-64
2022/03/24 10:55:51;;;;;;;62.88;38.33;;;17.10;77.00;;;;;;4927411;29;20098;-64
2022/03/24 10:58:26;;;;;;;60.85;40.15;;;17.20;75.80;;;;;;4930717;29;20711;-64
2022/03/24 11:00:54;;;;;;;62.05;39.67;;;17.30;73.80;;;;;;4924950;28;20051;-64
2022/03/24 11:03:21;;;;;;;63.03;36.78;;;17.30;73.40;;;;;;4920234;28;20062;-64
2022/03/24 11:05:47;;;;;;;60.28;37.83;;;17.40;71.30;;;;;;4914958;29;20383;-64
2022/03/24 11:08:17;;;;;;;54.33;37.30;;;17.40;70.40;;;;;;4935758;28;20051;-64
2022/03/24 11:10:53;;;;;;;55.92;36.28;;;17.50;69.80;;;;;;4930100;29;20098;-64
2022/03/24 11:13:40;;;;;;;55.88;36.47;;;17.60;69.80;;;;;;4939434;28;20047;-64
2022/03/24 11:16:08;;;;;;;59.03;37.78;;;17.80;69.20;;;;;;4926640;29;20742;-64
2022/03/24 11:18:34;;;;;;;60.08;36.13;;;17.90;68.40;;;;;;4931872;28;20901;-64
2022/03/24 11:21:04;;;;;;;63.00;39.22;;;18.00;67.70;;;;;;4934950;29;20430;-64
2022/03/24 11:23:35;;;;;;;64.47;41.03;;;18.10;66.30;;;;;;4929436;29;20086;-64
2022/03/24 11:26:05;;;;;;;66.78;41.67;;;18.20;66.90;;;;;;4932133;29;20087;-64
2022/03/24 11:28:34;;;;;;;59.35;40.95;;;18.20;66.50;;;;;;4923059;29;20054;-64
2022/03/24 11:31:07;;;;;;;62.47;42.42;;;18.20;68.30;;;;;;4932755;28;20178;-64
2022/03/24 11:33:36;;;;;;;;;;;18.30;66.50;;;;;;4935031;29;20430;-64
2022/03/24 11:36:02;;;;;;;57.90;39.97;;;18.30;67.80;;;;;;4928551;29;19922;-64
2022/03/24 11:38:28;;;;;;;62.15;39.35;;;18.40;66.60;;;;;;4934284;28;20079;-64
2022/03/24 11:41:04;;;;;;;58.60;39.53;;;18.30;66.40;;;;;;4932841;28;20138;-64
2022/03/24 11:43:32;;;;;;;53.65;37.47;;;18.40;66.00;;;;;;4925592;29;20043;-64
2022/03/24 11:46:11;;;;;;;52.58;37.53;;;18.50;64.50;;;;;;4911409;29;20075;-64
2022/03/24 11:48:39;;;;;;;52.42;35.97;;;18.60;64.40;;;;;;4929139;29;20099;-64
2022/03/24 11:51:25;;;;;;;50.45;35.05;;;18.70;63.20;;;;;;4924691;29;20047;-64
2022/03/24 11:54:06;;;;;;;52.35;35.10;;;18.80;61.40;;;;;;4919505;29;20051;-64
2022/03/24 11:56:32;;;;;;;49.53;35.83;;;18.80;60.90;;;;;;4924280;28;20434;-64
2022/03/24 11:58:59;;;;;;;51.22;34.35;;;18.70;60.00;;;;;;4928435;29;20058;-65
2022/03/24 12:01:29;;;;;;;53.22;34.72;;;18.80;60.00;;;;;;4927814;28;20142;-64
2022/03/24 12:04:08;;;;;;;53.10;33.70;;;18.90;59.50;;;;;;4929303;29;20054;-65
2022/03/24 12:06:43;;;;;;;50.08;33.75;;;19.00;59.60;;;;;;4927858;28;20050;-65
2022/03/24 12:09:22;;;;;;;47.60;32.65;;;19.20;58.60;;;;;;4917509;29;20043;-65
2022/03/24 12:12:04;;;;;;;53.05;33.58;;;19.30;58.40;;;;;;4927791;29;20121;-64
2022/03/24 12:14:32;;;;;;;45.20;31.13;;;19.50;58.20;;;;;;4927802;29;20051;-64
2022/03/24 12:17:06;;;;;;;47.53;31.95;;;19.60;58.00;;;;;;4927355;28;20865;-64
2022/03/24 12:19:50;;;;;;;48.42;30.42;;;19.70;57.00;;;;;;4930668;29;20142;-64
2022/03/24 12:22:25;;;;;;;45.10;32.08;;;19.90;57.30;;;;;;4927027;29;20050;-64
2022/03/24 12:24:51;;;;;;;47.08;33.78;;;20.10;56.30;;;;;;4931666;29;20067;-64
2022/03/24 12:27:18;;;;;;;54.53;34.45;;;20.20;56.90;;;;;;4943498;28;20102;-65
2022/03/24 12:30:10;;;;;;;44.95;32.38;;;20.30;55.50;;;;;;4924242;29;20415;-65
2022/03/24 12:32:36;;;;;;;50.97;34.38;;;20.30;54.50;;;;;;4928767;29;20490;-64
2022/03/24 12:35:03;;;;;;;46.42;33.00;;;20.20;54.10;;;;;;4915133;29;20055;-64
2022/03/24 12:37:32;;;;;;;49.78;32.75;;;20.10;54.00;;;;;;4916658;29;20051;-64
2022/03/24 12:40:08;;;;;;;47.53;33.28;;;20.10;53.80;;;;;;4929871;28;20055;-64
2022/03/24 12:42:46;;;;;;;52.63;33.25;;;20.10;52.70;;;;;;4926669;29;20055;-64
2022/03/24 12:45:25;;;;;;;47.65;32.38;;;20.10;52.50;;;;;;4918624;29;20055;-64